sensor_id;sensor_type;location;lat;lon;timestamp;P1;durP1;ratioP1;P2;durP2;ratioP2
24897;SDS011;12957;49.434;8.684;2023-08-20T00:00:14;5.93;;;5.28;;
24897;SDS011;12957;49.434;8.684;2023-08-20T00:02:43;7.43;;;5.32;;
24897;SDS011;12957;49.434;8.684;2023-08-20T00:05:13;6.32;;;5.57;;
24897;SDS011;12957;49.434;8.684;2023-08-20T00:07:39;8.55;;;5.43;;
24897;SDS011;12957;49.434;8.684;2023-08-20T00:10:05;6.60;;;5.78;;
24897;SDS011;12957;49.434;8.684;2023-08-20T00:12:31;8.57;;;5.63;;
24897;SDS011;12957;49.434;8.684;2023-08-20T00:14:58;11.82;;;5.40;;
24897;SDS011;12957;49.434;8.684;2023-08-20T00:17:30;9.90;;;5.40;;
24897;SDS011;12957;49.434;8.684;2023-08-20T00:19:56;6.50;;;5.18;;
24897;SDS011;12957;49.434;8.684;2023-08-20T00:22:22;7.90;;;5.32;;
24897;SDS011;12957;49.434;8.684;2023-08-20T00:24:49;11.32;;;5.70;;
24897;SDS011;12957;49.434;8.684;2023-08-20T00:27:16;8.70;;;5.75;;
24897;SDS011;12957;49.434;8.684;2023-08-20T00:29:42;8.68;;;5.32;;
24897;SDS011;12957;49.434;8.684;2023-08-20T00:32:07;7.68;;;5.43;;
24897;SDS011;12957;49.434;8.684;2023-08-20T00:34:33;9.02;;;5.97;;
24897;SDS011;12957;49.434;8.684;2023-08-20T00:36:58;6.32;;;5.72;;
24897;SDS011;12957;49.434;8.684;2023-08-20T00:39:24;9.82;;;7.10;;
24897;SDS011;12957;49.434;8.684;2023-08-20T00:41:49;10.30;;;5.93;;
24897;SDS011;12957;49.434;8.684;2023-08-20T00:44:15;6.10;;;5.60;;
24897;SDS011;12957;49.434;8.684;2023-08-20T00:46:42;8.90;;;6.43;;
24897;SDS011;12957;49.434;8.684;2023-08-20T00:49:09;9.18;;;6.05;;
24897;SDS011;12957;49.434;8.684;2023-08-20T00:51:35;9.50;;;5.97;;
24897;SDS011;12957;49.434;8.684;2023-08-20T00:54:01;8.85;;;6.72;;
24897;SDS011;12957;49.434;8.684;2023-08-20T00:56:27;6.85;;;5.88;;
24897;SDS011;12957;49.434;8.684;2023-08-20T00:58:53;11.75;;;6.45;;
24897;SDS011;12957;49.434;8.684;2023-08-20T01:01:20;12.23;;;5.68;;
24897;SDS011;12957;49.434;8.684;2023-08-20T01:03:49;9.98;;;6.07;;
24897;SDS011;12957;49.434;8.684;2023-08-20T01:06:32;9.38;;;5.72;;
24897;SDS011;12957;49.434;8.684;2023-08-20T01:09:14;8.68;;;5.70;;
24897;SDS011;12957;49.434;8.684;2023-08-20T01:11:57;8.07;;;6.05;;
24897;SDS011;12957;49.434;8.684;2023-08-20T01:14:24;6.10;;;5.43;;
24897;SDS011;12957;49.434;8.684;2023-08-20T01:16:50;9.57;;;5.50;;
24897;SDS011;12957;49.434;8.684;2023-08-20T01:19:19;6.45;;;5.85;;
24897;SDS011;12957;49.434;8.684;2023-08-20T01:24:40;9.63;;;5.45;;
24897;SDS011;12957;49.434;8.684;2023-08-20T01:27:19;5.72;;;5.22;;
24897;SDS011;12957;49.434;8.684;2023-08-20T01:30:00;6.25;;;5.30;;
24897;SDS011;12957;49.434;8.684;2023-08-20T01:32:27;9.98;;;5.03;;
24897;SDS011;12957;49.434;8.684;2023-08-20T01:34:53;6.10;;;5.20;;
24897;SDS011;12957;49.434;8.684;2023-08-20T01:37:19;9.52;;;5.45;;
24897;SDS011;12957;49.434;8.684;2023-08-20T01:39:44;7.22;;;5.53;;
24897;SDS011;12957;49.434;8.684;2023-08-20T01:42:10;10.15;;;5.63;;
24897;SDS011;12957;49.434;8.684;2023-08-20T01:44:36;6.15;;;5.55;;
24897;SDS011;12957;49.434;8.684;2023-08-20T01:47:04;7.70;;;5.70;;
24897;SDS011;12957;49.434;8.684;2023-08-20T01:49:29;6.32;;;5.63;;
24897;SDS011;12957;49.434;8.684;2023-08-20T01:51:55;13.68;;;6.07;;
24897;SDS011;12957;49.434;8.684;2023-08-20T01:54:20;10.27;;;6.00;;
24897;SDS011;12957;49.434;8.684;2023-08-20T01:56:46;6.63;;;5.50;;
24897;SDS011;12957;49.434;8.684;2023-08-20T01:59:11;6.70;;;5.82;;
24897;SDS011;12957;49.434;8.684;2023-08-20T02:01:37;7.80;;;5.97;;
24897;SDS011;12957;49.434;8.684;2023-08-20T02:04:03;8.82;;;5.55;;
24897;SDS011;12957;49.434;8.684;2023-08-20T02:06:28;8.27;;;6.10;;
24897;SDS011;12957;49.434;8.684;2023-08-20T02:08:54;7.32;;;6.07;;
24897;SDS011;12957;49.434;8.684;2023-08-20T02:11:19;9.13;;;5.63;;
24897;SDS011;12957;49.434;8.684;2023-08-20T02:13:46;7.07;;;5.75;;
24897;SDS011;12957;49.434;8.684;2023-08-20T02:16:13;8.43;;;5.95;;
24897;SDS011;12957;49.434;8.684;2023-08-20T02:18:41;7.80;;;5.55;;
24897;SDS011;12957;49.434;8.684;2023-08-20T02:21:06;10.13;;;5.97;;
24897;SDS011;12957;49.434;8.684;2023-08-20T02:23:37;6.40;;;5.78;;
24897;SDS011;12957;49.434;8.684;2023-08-20T02:26:02;8.15;;;5.90;;
24897;SDS011;12957;49.434;8.684;2023-08-20T02:28:27;7.22;;;6.53;;
24897;SDS011;12957;49.434;8.684;2023-08-20T02:30:53;7.32;;;6.63;;
24897;SDS011;12957;49.434;8.684;2023-08-20T02:33:18;7.53;;;6.40;;
24897;SDS011;12957;49.434;8.684;2023-08-20T02:35:44;10.90;;;6.30;;
24897;SDS011;12957;49.434;8.684;2023-08-20T02:38:09;9.07;;;6.70;;
24897;SDS011;12957;49.434;8.684;2023-08-20T02:40:44;7.50;;;5.85;;
24897;SDS011;12957;49.434;8.684;2023-08-20T02:43:09;9.00;;;6.13;;
24897;SDS011;12957;49.434;8.684;2023-08-20T02:45:41;6.72;;;5.95;;
24897;SDS011;12957;49.434;8.684;2023-08-20T02:48:10;7.63;;;6.25;;
24897;SDS011;12957;49.434;8.684;2023-08-20T02:50:36;12.30;;;6.30;;
24897;SDS011;12957;49.434;8.684;2023-08-20T02:53:03;8.80;;;6.47;;
24897;SDS011;12957;49.434;8.684;2023-08-20T02:55:29;10.95;;;6.53;;
24897;SDS011;12957;49.434;8.684;2023-08-20T02:57:55;8.35;;;6.57;;
24897;SDS011;12957;49.434;8.684;2023-08-20T03:00:21;9.93;;;6.78;;
24897;SDS011;12957;49.434;8.684;2023-08-20T03:02:46;7.80;;;6.65;;
24897;SDS011;12957;49.434;8.684;2023-08-20T03:05:12;11.77;;;6.80;;
24897;SDS011;12957;49.434;8.684;2023-08-20T03:07:37;11.50;;;6.78;;
24897;SDS011;12957;49.434;8.684;2023-08-20T03:10:03;8.85;;;6.38;;
24897;SDS011;12957;49.434;8.684;2023-08-20T03:12:29;7.78;;;6.72;;
24897;SDS011;12957;49.434;8.684;2023-08-20T03:14:54;6.78;;;6.18;;
24897;SDS011;12957;49.434;8.684;2023-08-20T03:17:20;8.35;;;7.05;;
24897;SDS011;12957;49.434;8.684;2023-08-20T03:22:24;7.80;;;7.00;;
24897;SDS011;12957;49.434;8.684;2023-08-20T03:24:50;8.15;;;6.22;;
24897;SDS011;12957;49.434;8.684;2023-08-20T03:27:15;7.53;;;6.28;;
24897;SDS011;12957;49.434;8.684;2023-08-20T03:29:41;7.35;;;6.10;;
24897;SDS011;12957;49.434;8.684;2023-08-20T03:32:07;8.98;;;6.55;;
24897;SDS011;12957;49.434;8.684;2023-08-20T03:34:32;7.68;;;6.63;;
24897;SDS011;12957;49.434;8.684;2023-08-20T03:36:58;10.00;;;7.10;;
24897;SDS011;12957;49.434;8.684;2023-08-20T03:39:23;7.10;;;6.47;;
24897;SDS011;12957;49.434;8.684;2023-08-20T03:41:49;8.65;;;6.65;;
24897;SDS011;12957;49.434;8.684;2023-08-20T03:44:15;9.40;;;6.55;;
24897;SDS011;12957;49.434;8.684;2023-08-20T03:46:41;9.50;;;6.50;;
24897;SDS011;12957;49.434;8.684;2023-08-20T03:49:06;11.55;;;7.22;;
24897;SDS011;12957;49.434;8.684;2023-08-20T03:51:32;10.23;;;7.03;;
24897;SDS011;12957;49.434;8.684;2023-08-20T03:53:57;12.57;;;7.50;;
24897;SDS011;12957;49.434;8.684;2023-08-20T03:56:25;10.52;;;6.75;;
24897;SDS011;12957;49.434;8.684;2023-08-20T03:58:51;8.52;;;7.03;;
24897;SDS011;12957;49.434;8.684;2023-08-20T04:01:17;10.88;;;6.65;;
24897;SDS011;12957;49.434;8.684;2023-08-20T04:03:43;7.75;;;6.95;;
24897;SDS011;12957;49.434;8.684;2023-08-20T04:06:08;11.98;;;7.07;;
24897;SDS011;12957;49.434;8.684;2023-08-20T04:08:34;15.20;;;6.95;;
24897;SDS011;12957;49.434;8.684;2023-08-20T04:10:59;10.98;;;7.35;;
24897;SDS011;12957;49.434;8.684;2023-08-20T04:13:28;8.43;;;7.32;;
24897;SDS011;12957;49.434;8.684;2023-08-20T04:15:54;11.48;;;7.30;;
24897;SDS011;12957;49.434;8.684;2023-08-20T04:18:19;14.25;;;7.28;;
24897;SDS011;12957;49.434;8.684;2023-08-20T04:20:45;12.30;;;6.97;;
24897;SDS011;12957;49.434;8.684;2023-08-20T04:23:10;8.82;;;6.90;;
24897;SDS011;12957;49.434;8.684;2023-08-20T04:25:36;7.55;;;6.72;;
24897;SDS011;12957;49.434;8.684;2023-08-20T04:28:01;10.20;;;7.47;;
24897;SDS011;12957;49.434;8.684;2023-08-20T04:30:27;10.45;;;7.30;;
24897;SDS011;12957;49.434;8.684;2023-08-20T04:32:52;8.75;;;7.25;;
24897;SDS011;12957;49.434;8.684;2023-08-20T04:35:18;9.20;;;6.63;;
24897;SDS011;12957;49.434;8.684;2023-08-20T04:37:43;14.75;;;6.93;;
24897;SDS011;12957;49.434;8.684;2023-08-20T04:40:11;8.30;;;6.55;;
24897;SDS011;12957;49.434;8.684;2023-08-20T04:42:37;8.02;;;6.55;;
24897;SDS011;12957;49.434;8.684;2023-08-20T04:45:03;8.02;;;6.18;;
24897;SDS011;12957;49.434;8.684;2023-08-20T04:47:28;8.68;;;6.75;;
24897;SDS011;12957;49.434;8.684;2023-08-20T04:49:54;7.18;;;6.20;;
24897;SDS011;12957;49.434;8.684;2023-08-20T04:52:19;8.98;;;6.40;;
24897;SDS011;12957;49.434;8.684;2023-08-20T04:54:45;11.05;;;7.35;;
24897;SDS011;12957;49.434;8.684;2023-08-20T04:57:12;14.70;;;6.50;;
24897;SDS011;12957;49.434;8.684;2023-08-20T04:59:37;8.10;;;6.30;;
24897;SDS011;12957;49.434;8.684;2023-08-20T05:02:04;7.22;;;6.50;;
24897;SDS011;12957;49.434;8.684;2023-08-20T05:04:29;9.15;;;6.55;;
24897;SDS011;12957;49.434;8.684;2023-08-20T05:06:55;10.02;;;6.57;;
24897;SDS011;12957;49.434;8.684;2023-08-20T05:09:21;10.35;;;6.38;;
24897;SDS011;12957;49.434;8.684;2023-08-20T05:11:46;8.07;;;6.43;;
24897;SDS011;12957;49.434;8.684;2023-08-20T05:14:12;7.15;;;6.13;;
24897;SDS011;12957;49.434;8.684;2023-08-20T05:16:37;8.38;;;6.15;;
24897;SDS011;12957;49.434;8.684;2023-08-20T05:19:03;11.30;;;6.25;;
24897;SDS011;12957;49.434;8.684;2023-08-20T05:21:30;7.75;;;5.80;;
24897;SDS011;12957;49.434;8.684;2023-08-20T05:23:55;10.68;;;6.00;;
24897;SDS011;12957;49.434;8.684;2023-08-20T05:26:22;9.80;;;5.90;;
24897;SDS011;12957;49.434;8.684;2023-08-20T05:28:47;8.98;;;6.20;;
24897;SDS011;12957;49.434;8.684;2023-08-20T05:31:13;6.57;;;5.97;;
24897;SDS011;12957;49.434;8.684;2023-08-20T05:33:39;7.05;;;5.93;;
24897;SDS011;12957;49.434;8.684;2023-08-20T05:36:04;11.38;;;5.97;;
24897;SDS011;12957;49.434;8.684;2023-08-20T05:38:30;7.10;;;5.85;;
24897;SDS011;12957;49.434;8.684;2023-08-20T05:40:55;6.82;;;6.03;;
24897;SDS011;12957;49.434;8.684;2023-08-20T05:43:21;8.20;;;5.88;;
24897;SDS011;12957;49.434;8.684;2023-08-20T05:45:46;5.82;;;5.13;;
24897;SDS011;12957;49.434;8.684;2023-08-20T05:48:12;8.73;;;4.85;;
24897;SDS011;12957;49.434;8.684;2023-08-20T05:50:37;7.43;;;5.00;;
24897;SDS011;12957;49.434;8.684;2023-08-20T05:53:06;11.40;;;4.97;;
24897;SDS011;12957;49.434;8.684;2023-08-20T05:55:32;5.22;;;4.63;;
24897;SDS011;12957;49.434;8.684;2023-08-20T05:57:57;5.63;;;4.75;;
24897;SDS011;12957;49.434;8.684;2023-08-20T06:00:22;13.18;;;4.70;;
24897;SDS011;12957;49.434;8.684;2023-08-20T06:02:48;4.90;;;4.40;;
24897;SDS011;12957;49.434;8.684;2023-08-20T06:05:13;5.47;;;4.60;;
24897;SDS011;12957;49.434;8.684;2023-08-20T06:07:39;4.50;;;4.10;;
24897;SDS011;12957;49.434;8.684;2023-08-20T06:10:06;6.35;;;4.10;;
24897;SDS011;12957;49.434;8.684;2023-08-20T06:12:32;8.38;;;4.43;;
24897;SDS011;12957;49.434;8.684;2023-08-20T06:14:57;5.47;;;4.55;;
24897;SDS011;12957;49.434;8.684;2023-08-20T06:17:26;7.72;;;4.15;;
24897;SDS011;12957;49.434;8.684;2023-08-20T06:19:51;4.90;;;4.50;;
24897;SDS011;12957;49.434;8.684;2023-08-20T06:22:17;4.90;;;4.10;;
24897;SDS011;12957;49.434;8.684;2023-08-20T06:24:42;5.85;;;4.00;;
24897;SDS011;12957;49.434;8.684;2023-08-20T06:27:08;9.25;;;5.25;;
24897;SDS011;12957;49.434;8.684;2023-08-20T06:29:33;5.60;;;5.10;;
24897;SDS011;12957;49.434;8.684;2023-08-20T06:31:59;9.38;;;5.80;;
24897;SDS011;12957;49.434;8.684;2023-08-20T06:34:24;7.38;;;4.93;;
24897;SDS011;12957;49.434;8.684;2023-08-20T06:36:50;9.18;;;5.47;;
24897;SDS011;12957;49.434;8.684;2023-08-20T06:39:15;5.28;;;4.60;;
24897;SDS011;12957;49.434;8.684;2023-08-20T06:41:41;6.25;;;5.47;;
24897;SDS011;12957;49.434;8.684;2023-08-20T06:44:06;7.15;;;5.50;;
24897;SDS011;12957;49.434;8.684;2023-08-20T06:46:32;6.20;;;5.00;;
24897;SDS011;12957;49.434;8.684;2023-08-20T06:48:57;8.63;;;5.13;;
24897;SDS011;12957;49.434;8.684;2023-08-20T06:51:23;6.03;;;4.88;;
24897;SDS011;12957;49.434;8.684;2023-08-20T06:53:50;8.85;;;5.07;;
24897;SDS011;12957;49.434;8.684;2023-08-20T06:56:15;10.00;;;5.95;;
24897;SDS011;12957;49.434;8.684;2023-08-20T06:58:41;5.85;;;4.68;;
24897;SDS011;12957;49.434;8.684;2023-08-20T07:01:07;8.20;;;5.50;;
24897;SDS011;12957;49.434;8.684;2023-08-20T07:03:34;8.00;;;5.43;;
24897;SDS011;12957;49.434;8.684;2023-08-20T07:06:00;9.43;;;5.43;;
24897;SDS011;12957;49.434;8.684;2023-08-20T07:08:25;6.60;;;5.25;;
24897;SDS011;12957;49.434;8.684;2023-08-20T07:10:51;7.32;;;5.22;;
24897;SDS011;12957;49.434;8.684;2023-08-20T07:13:16;8.50;;;5.60;;
24897;SDS011;12957;49.434;8.684;2023-08-20T07:15:42;8.27;;;5.20;;
24897;SDS011;12957;49.434;8.684;2023-08-20T07:18:07;8.38;;;5.80;;
24897;SDS011;12957;49.434;8.684;2023-08-20T07:20:33;9.27;;;5.43;;
24897;SDS011;12957;49.434;8.684;2023-08-20T07:22:59;8.38;;;5.82;;
24897;SDS011;12957;49.434;8.684;2023-08-20T07:25:24;7.13;;;5.65;;
24897;SDS011;12957;49.434;8.684;2023-08-20T07:27:49;11.40;;;6.20;;
24897;SDS011;12957;49.434;8.684;2023-08-20T07:30:17;7.32;;;5.50;;
24897;SDS011;12957;49.434;8.684;2023-08-20T07:32:43;8.75;;;5.10;;
24897;SDS011;12957;49.434;8.684;2023-08-20T07:35:08;12.48;;;5.90;;
24897;SDS011;12957;49.434;8.684;2023-08-20T07:37:35;8.70;;;5.75;;
24897;SDS011;12957;49.434;8.684;2023-08-20T07:40:00;8.18;;;5.60;;
24897;SDS011;12957;49.434;8.684;2023-08-20T07:42:25;8.38;;;5.85;;
24897;SDS011;12957;49.434;8.684;2023-08-20T07:44:54;6.20;;;5.05;;
24897;SDS011;12957;49.434;8.684;2023-08-20T07:47:19;9.13;;;6.20;;
24897;SDS011;12957;49.434;8.684;2023-08-20T07:49:47;7.25;;;5.03;;
24897;SDS011;12957;49.434;8.684;2023-08-20T07:52:12;6.70;;;5.55;;
24897;SDS011;12957;49.434;8.684;2023-08-20T07:54:38;8.80;;;5.30;;
24897;SDS011;12957;49.434;8.684;2023-08-20T07:57:04;7.78;;;5.13;;
24897;SDS011;12957;49.434;8.684;2023-08-20T07:59:29;9.73;;;5.70;;
24897;SDS011;12957;49.434;8.684;2023-08-20T08:01:54;8.85;;;5.30;;
24897;SDS011;12957;49.434;8.684;2023-08-20T08:04:20;4.82;;;4.32;;
24897;SDS011;12957;49.434;8.684;2023-08-20T08:07:11;7.65;;;5.63;;
24897;SDS011;12957;49.434;8.684;2023-08-20T08:09:37;8.98;;;5.22;;
24897;SDS011;12957;49.434;8.684;2023-08-20T08:12:02;7.82;;;5.25;;
24897;SDS011;12957;49.434;8.684;2023-08-20T08:14:28;7.90;;;5.63;;
24897;SDS011;12957;49.434;8.684;2023-08-20T08:16:54;8.73;;;4.88;;
24897;SDS011;12957;49.434;8.684;2023-08-20T08:19:20;7.22;;;4.88;;
24897;SDS011;12957;49.434;8.684;2023-08-20T08:21:45;10.32;;;5.53;;
24897;SDS011;12957;49.434;8.684;2023-08-20T08:24:11;7.05;;;5.03;;
24897;SDS011;12957;49.434;8.684;2023-08-20T08:26:37;5.63;;;4.85;;
24897;SDS011;12957;49.434;8.684;2023-08-20T08:29:03;6.93;;;5.32;;
24897;SDS011;12957;49.434;8.684;2023-08-20T08:31:29;5.88;;;5.38;;
24897;SDS011;12957;49.434;8.684;2023-08-20T08:33:55;8.40;;;5.43;;
24897;SDS011;12957;49.434;8.684;2023-08-20T08:36:20;5.05;;;4.63;;
24897;SDS011;12957;49.434;8.684;2023-08-20T08:38:46;8.02;;;6.00;;
24897;SDS011;12957;49.434;8.684;2023-08-20T08:41:12;5.93;;;5.28;;
24897;SDS011;12957;49.434;8.684;2023-08-20T08:43:41;7.95;;;4.82;;
24897;SDS011;12957;49.434;8.684;2023-08-20T08:46:07;5.47;;;4.93;;
24897;SDS011;12957;49.434;8.684;2023-08-20T08:48:37;5.38;;;4.88;;
24897;SDS011;12957;49.434;8.684;2023-08-20T08:51:05;7.45;;;4.95;;
24897;SDS011;12957;49.434;8.684;2023-08-20T08:53:30;7.82;;;5.00;;
24897;SDS011;12957;49.434;8.684;2023-08-20T08:55:57;6.60;;;4.57;;
24897;SDS011;12957;49.434;8.684;2023-08-20T08:58:23;4.53;;;4.13;;
24897;SDS011;12957;49.434;8.684;2023-08-20T09:00:49;9.57;;;4.82;;
24897;SDS011;12957;49.434;8.684;2023-08-20T09:03:14;9.43;;;5.00;;
24897;SDS011;12957;49.434;8.684;2023-08-20T09:05:49;5.45;;;4.95;;
24897;SDS011;12957;49.434;8.684;2023-08-20T09:08:22;8.57;;;5.13;;
24897;SDS011;12957;49.434;8.684;2023-08-20T09:10:52;9.40;;;5.35;;
24897;SDS011;12957;49.434;8.684;2023-08-20T09:13:23;8.35;;;5.45;;
24897;SDS011;12957;49.434;8.684;2023-08-20T09:15:53;6.03;;;5.05;;
24897;SDS011;12957;49.434;8.684;2023-08-20T09:18:18;7.75;;;5.20;;
24897;SDS011;12957;49.434;8.684;2023-08-20T09:20:47;5.63;;;5.00;;
24897;SDS011;12957;49.434;8.684;2023-08-20T09:23:14;12.05;;;4.78;;
24897;SDS011;12957;49.434;8.684;2023-08-20T09:25:40;7.32;;;5.13;;
24897;SDS011;12957;49.434;8.684;2023-08-20T09:28:06;5.60;;;4.50;;
24897;SDS011;12957;49.434;8.684;2023-08-20T09:30:32;10.05;;;5.18;;
24897;SDS011;12957;49.434;8.684;2023-08-20T09:33:09;7.22;;;4.75;;
24897;SDS011;12957;49.434;8.684;2023-08-20T09:35:35;5.00;;;4.50;;
24897;SDS011;12957;49.434;8.684;2023-08-20T09:38:02;4.90;;;4.40;;
24897;SDS011;12957;49.434;8.684;2023-08-20T09:40:28;11.43;;;4.82;;
24897;SDS011;12957;49.434;8.684;2023-08-20T09:42:54;5.57;;;4.47;;
24897;SDS011;12957;49.434;8.684;2023-08-20T09:45:20;6.10;;;4.60;;
24897;SDS011;12957;49.434;8.684;2023-08-20T09:47:46;8.88;;;4.43;;
24897;SDS011;12957;49.434;8.684;2023-08-20T09:50:13;7.35;;;4.65;;
24897;SDS011;12957;49.434;8.684;2023-08-20T09:52:52;7.50;;;4.43;;
24897;SDS011;12957;49.434;8.684;2023-08-20T09:55:21;6.00;;;4.22;;
24897;SDS011;12957;49.434;8.684;2023-08-20T09:57:49;8.15;;;4.60;;
24897;SDS011;12957;49.434;8.684;2023-08-20T10:00:16;5.47;;;4.50;;
24897;SDS011;12957;49.434;8.684;2023-08-20T10:02:41;5.80;;;4.35;;
24897;SDS011;12957;49.434;8.684;2023-08-20T10:05:08;8.85;;;5.35;;
24897;SDS011;12957;49.434;8.684;2023-08-20T10:07:34;7.35;;;4.45;;
24897;SDS011;12957;49.434;8.684;2023-08-20T10:10:04;13.73;;;4.38;;
24897;SDS011;12957;49.434;8.684;2023-08-20T10:12:31;5.38;;;4.28;;
24897;SDS011;12957;49.434;8.684;2023-08-20T10:14:57;8.20;;;4.80;;
24897;SDS011;12957;49.434;8.684;2023-08-20T10:17:23;6.28;;;4.32;;
24897;SDS011;12957;49.434;8.684;2023-08-20T10:19:49;6.53;;;4.45;;
24897;SDS011;12957;49.434;8.684;2023-08-20T10:22:16;10.75;;;4.30;;
24897;SDS011;12957;49.434;8.684;2023-08-20T10:25:00;6.10;;;4.60;;
24897;SDS011;12957;49.434;8.684;2023-08-20T10:27:31;7.22;;;4.78;;
24897;SDS011;12957;49.434;8.684;2023-08-20T10:29:58;5.53;;;4.57;;
24897;SDS011;12957;49.434;8.684;2023-08-20T10:32:43;7.55;;;4.65;;
24897;SDS011;12957;49.434;8.684;2023-08-20T10:35:28;8.68;;;5.15;;
24897;SDS011;12957;49.434;8.684;2023-08-20T10:38:12;8.40;;;4.15;;
24897;SDS011;12957;49.434;8.684;2023-08-20T10:40:57;11.88;;;4.70;;
24897;SDS011;12957;49.434;8.684;2023-08-20T10:43:26;8.65;;;4.72;;
24897;SDS011;12957;49.434;8.684;2023-08-20T10:48:38;4.68;;;4.13;;
24897;SDS011;12957;49.434;8.684;2023-08-20T10:53:34;4.53;;;4.13;;
24897;SDS011;12957;49.434;8.684;2023-08-20T10:56:13;6.55;;;4.47;;
24897;SDS011;12957;49.434;8.684;2023-08-20T10:58:41;5.55;;;4.32;;
24897;SDS011;12957;49.434;8.684;2023-08-20T11:03:49;6.93;;;4.07;;
24897;SDS011;12957;49.434;8.684;2023-08-20T11:06:15;5.13;;;4.05;;
24897;SDS011;12957;49.434;8.684;2023-08-20T11:08:41;4.35;;;3.97;;
24897;SDS011;12957;49.434;8.684;2023-08-20T11:11:07;4.47;;;4.10;;
24897;SDS011;12957;49.434;8.684;2023-08-20T11:13:33;6.28;;;4.35;;
24897;SDS011;12957;49.434;8.684;2023-08-20T11:15:59;8.63;;;4.38;;
24897;SDS011;12957;49.434;8.684;2023-08-20T11:18:26;9.25;;;5.05;;
24897;SDS011;12957;49.434;8.684;2023-08-20T11:20:52;5.45;;;4.95;;
24897;SDS011;12957;49.434;8.684;2023-08-20T11:23:19;7.22;;;3.88;;
24897;SDS011;12957;49.434;8.684;2023-08-20T11:25:44;8.70;;;4.20;;
24897;SDS011;12957;49.434;8.684;2023-08-20T11:28:10;5.47;;;4.18;;
24897;SDS011;12957;49.434;8.684;2023-08-20T11:30:35;5.30;;;4.30;;
24897;SDS011;12957;49.434;8.684;2023-08-20T11:33:01;6.03;;;4.30;;
24897;SDS011;12957;49.434;8.684;2023-08-20T11:35:27;4.88;;;4.07;;
24897;SDS011;12957;49.434;8.684;2023-08-20T11:37:53;10.10;;;4.32;;
24897;SDS011;12957;49.434;8.684;2023-08-20T11:40:21;5.93;;;3.80;;
24897;SDS011;12957;49.434;8.684;2023-08-20T11:42:48;4.63;;;4.20;;
24897;SDS011;12957;49.434;8.684;2023-08-20T11:45:13;9.13;;;4.50;;
24897;SDS011;12957;49.434;8.684;2023-08-20T11:47:39;4.65;;;4.03;;
24897;SDS011;12957;49.434;8.684;2023-08-20T11:50:05;6.40;;;4.22;;
24897;SDS011;12957;49.434;8.684;2023-08-20T11:52:36;6.15;;;4.15;;
24897;SDS011;12957;49.434;8.684;2023-08-20T11:55:01;5.05;;;3.80;;
24897;SDS011;12957;49.434;8.684;2023-08-20T11:57:30;7.90;;;4.22;;
24897;SDS011;12957;49.434;8.684;2023-08-20T11:59:59;8.50;;;4.22;;
24897;SDS011;12957;49.434;8.684;2023-08-20T12:02:29;10.75;;;4.28;;
24897;SDS011;12957;49.434;8.684;2023-08-20T12:04:55;5.07;;;4.43;;
24897;SDS011;12957;49.434;8.684;2023-08-20T12:07:24;5.78;;;4.10;;
24897;SDS011;12957;49.434;8.684;2023-08-20T12:09:51;6.13;;;4.45;;
24897;SDS011;12957;49.434;8.684;2023-08-20T12:12:17;4.55;;;4.05;;
24897;SDS011;12957;49.434;8.684;2023-08-20T12:14:44;5.63;;;3.72;;
24897;SDS011;12957;49.434;8.684;2023-08-20T12:17:10;5.82;;;4.03;;
24897;SDS011;12957;49.434;8.684;2023-08-20T12:19:35;5.43;;;4.30;;
24897;SDS011;12957;49.434;8.684;2023-08-20T12:22:00;5.78;;;3.97;;
24897;SDS011;12957;49.434;8.684;2023-08-20T12:24:26;7.40;;;4.13;;
24897;SDS011;12957;49.434;8.684;2023-08-20T12:26:52;4.75;;;4.10;;
24897;SDS011;12957;49.434;8.684;2023-08-20T12:29:18;4.78;;;3.95;;
24897;SDS011;12957;49.434;8.684;2023-08-20T12:31:43;8.88;;;4.25;;
24897;SDS011;12957;49.434;8.684;2023-08-20T12:34:09;4.85;;;4.05;;
24897;SDS011;12957;49.434;8.684;2023-08-20T12:36:34;9.43;;;3.88;;
24897;SDS011;12957;49.434;8.684;2023-08-20T12:39:00;4.57;;;4.10;;
24897;SDS011;12957;49.434;8.684;2023-08-20T12:41:25;5.63;;;3.70;;
24897;SDS011;12957;49.434;8.684;2023-08-20T12:43:51;5.78;;;4.07;;
24897;SDS011;12957;49.434;8.684;2023-08-20T12:46:17;7.18;;;4.18;;
24897;SDS011;12957;49.434;8.684;2023-08-20T12:48:42;7.38;;;3.83;;
24897;SDS011;12957;49.434;8.684;2023-08-20T12:51:08;5.35;;;3.97;;
24897;SDS011;12957;49.434;8.684;2023-08-20T12:53:37;6.35;;;4.03;;
24897;SDS011;12957;49.434;8.684;2023-08-20T12:56:03;7.95;;;3.80;;
24897;SDS011;12957;49.434;8.684;2023-08-20T12:58:28;5.53;;;3.70;;
24897;SDS011;12957;49.434;8.684;2023-08-20T13:00:54;5.13;;;4.00;;
24897;SDS011;12957;49.434;8.684;2023-08-20T13:03:19;5.93;;;3.67;;
24897;SDS011;12957;49.434;8.684;2023-08-20T13:05:45;4.50;;;4.10;;
24897;SDS011;12957;49.434;8.684;2023-08-20T13:08:11;5.75;;;4.00;;
24897;SDS011;12957;49.434;8.684;2023-08-20T13:10:40;7.53;;;3.92;;
24897;SDS011;12957;49.434;8.684;2023-08-20T13:13:07;4.43;;;3.70;;
24897;SDS011;12957;49.434;8.684;2023-08-20T13:15:34;4.85;;;3.67;;
24897;SDS011;12957;49.434;8.684;2023-08-20T13:18:00;4.55;;;4.00;;
24897;SDS011;12957;49.434;8.684;2023-08-20T13:20:26;6.30;;;3.65;;
24897;SDS011;12957;49.434;8.684;2023-08-20T13:22:52;5.03;;;3.80;;
24897;SDS011;12957;49.434;8.684;2023-08-20T13:25:18;4.20;;;3.80;;
24897;SDS011;12957;49.434;8.684;2023-08-20T13:27:47;8.93;;;3.97;;
24897;SDS011;12957;49.434;8.684;2023-08-20T13:30:12;4.18;;;3.78;;
24897;SDS011;12957;49.434;8.684;2023-08-20T13:32:38;6.55;;;3.90;;
24897;SDS011;12957;49.434;8.684;2023-08-20T13:35:04;4.28;;;3.80;;
24897;SDS011;12957;49.434;8.684;2023-08-20T13:37:30;4.40;;;3.67;;
24897;SDS011;12957;49.434;8.684;2023-08-20T13:39:56;4.38;;;4.05;;
24897;SDS011;12957;49.434;8.684;2023-08-20T13:42:22;3.88;;;3.50;;
24897;SDS011;12957;49.434;8.684;2023-08-20T13:44:47;6.55;;;3.78;;
24897;SDS011;12957;49.434;8.684;2023-08-20T13:47:13;6.22;;;4.00;;
24897;SDS011;12957;49.434;8.684;2023-08-20T13:49:38;6.15;;;3.72;;
24897;SDS011;12957;49.434;8.684;2023-08-20T13:52:04;4.97;;;3.50;;
24897;SDS011;12957;49.434;8.684;2023-08-20T13:54:29;5.65;;;3.38;;
24897;SDS011;12957;49.434;8.684;2023-08-20T13:56:56;7.30;;;3.47;;
24897;SDS011;12957;49.434;8.684;2023-08-20T13:59:22;3.75;;;3.42;;
24897;SDS011;12957;49.434;8.684;2023-08-20T14:01:48;9.50;;;3.53;;
24897;SDS011;12957;49.434;8.684;2023-08-20T14:04:13;5.40;;;3.38;;
24897;SDS011;12957;49.434;8.684;2023-08-20T14:06:39;7.18;;;3.83;;
24897;SDS011;12957;49.434;8.684;2023-08-20T14:09:05;7.30;;;3.85;;
24897;SDS011;12957;49.434;8.684;2023-08-20T14:11:30;5.05;;;3.53;;
24897;SDS011;12957;49.434;8.684;2023-08-20T14:13:55;4.85;;;3.20;;
24897;SDS011;12957;49.434;8.684;2023-08-20T14:16:21;5.28;;;3.58;;
24897;SDS011;12957;49.434;8.684;2023-08-20T14:18:47;5.47;;;3.83;;
24897;SDS011;12957;49.434;8.684;2023-08-20T14:21:12;5.38;;;3.38;;
24897;SDS011;12957;49.434;8.684;2023-08-20T14:23:37;5.03;;;3.70;;
24897;SDS011;12957;49.434;8.684;2023-08-20T14:26:03;4.90;;;3.25;;
24897;SDS011;12957;49.434;8.684;2023-08-20T14:28:30;9.13;;;3.78;;
24897;SDS011;12957;49.434;8.684;2023-08-20T14:31:02;4.85;;;3.38;;
24897;SDS011;12957;49.434;8.684;2023-08-20T14:33:29;5.00;;;3.78;;
24897;SDS011;12957;49.434;8.684;2023-08-20T14:35:55;3.90;;;3.50;;
24897;SDS011;12957;49.434;8.684;2023-08-20T14:38:21;3.50;;;3.20;;
24897;SDS011;12957;49.434;8.684;2023-08-20T14:40:47;3.60;;;3.30;;
24897;SDS011;12957;49.434;8.684;2023-08-20T14:43:15;4.88;;;3.50;;
24897;SDS011;12957;49.434;8.684;2023-08-20T14:45:41;5.43;;;3.28;;
24897;SDS011;12957;49.434;8.684;2023-08-20T14:48:06;3.72;;;3.08;;
24897;SDS011;12957;49.434;8.684;2023-08-20T14:50:32;4.72;;;3.45;;
24897;SDS011;12957;49.434;8.684;2023-08-20T14:52:58;4.47;;;3.13;;
24897;SDS011;12957;49.434;8.684;2023-08-20T14:55:23;5.40;;;3.20;;